In Rescue
 
Open Full Screen Window  High Contrast Mode
Wind Gusting 00 knots
03
July 25, 2021 7:23 AM EDT
Weather Information
Wind Direction
  240 °
Wind Speed
  03 kt (3 mph)
Wind Gust
  00 kt (0 mph)
Altimeter
29.92 in
Visibility
4 SM
Temperature
21° C
70° F
Dewpoint
20° C
68° F
Humidity
94%
1hr Rain Fall
00.00 in.
24hr Rain Fall
00.15 in.
Sky Condition
Overcast @ 600 ft
IFR

METAR KPOV 251123Z AUTO 24003KT 4SM OVC006 21/20 A2992 RMK AO2 T02080195 PWINO

FAA Disclaimer: The data displayed is for advisory purposes only and is not to be used for flight planning or operations.